createdAt,value
2023-03-16T00:00:26.231Z,38.64
2023-03-16T00:04:25.951Z,38.43
2023-03-16T00:08:26.029Z,38.37
2023-03-16T00:12:26.155Z,38.23
2023-03-16T00:16:26.425Z,38.06
2023-03-16T00:20:26.558Z,37.86
2023-03-16T00:24:26.286Z,37.76
2023-03-16T00:28:26.336Z,37.54
2023-03-16T00:32:26.449Z,37.43
2023-03-16T00:36:26.455Z,37.34
2023-03-16T00:40:26.829Z,37.18
2023-03-16T00:44:26.542Z,36.99
2023-03-16T00:48:26.514Z,36.88
2023-03-16T00:52:26.503Z,36.77
2023-03-16T00:56:26.542Z,36.67
2023-03-16T01:00:26.864Z,36.54
2023-03-16T01:04:26.611Z,36.42
2023-03-16T01:08:26.610Z,36.32
2023-03-16T01:12:26.584Z,36.15
2023-03-16T01:16:26.617Z,36.09
2023-03-16T01:20:26.860Z,35.91
2023-03-16T01:24:26.528Z,35.86
2023-03-16T01:28:26.540Z,35.75
2023-03-16T01:32:26.602Z,35.63
2023-03-16T01:36:26.534Z,35.52
2023-03-16T01:40:26.880Z,35.41
2023-03-16T01:44:26.549Z,35.29
2023-03-16T01:48:26.522Z,35.21
2023-03-16T01:52:26.544Z,35.07
2023-03-16T01:56:26.551Z,34.97
2023-03-16T02:00:27.003Z,34.85
2023-03-16T02:04:26.567Z,34.79
2023-03-16T02:08:26.478Z,34.69
2023-03-16T02:12:26.451Z,34.56
2023-03-16T02:16:26.445Z,34.48
2023-03-16T02:20:26.769Z,34.39
2023-03-16T02:24:26.414Z,34.34
2023-03-16T02:28:26.409Z,34.20
2023-03-16T02:32:26.395Z,34.07
2023-03-16T02:36:26.430Z,34.03
2023-03-16T02:40:26.744Z,33.90
2023-03-16T02:44:26.377Z,33.83
2023-03-16T02:48:26.388Z,33.73
2023-03-16T02:52:26.344Z,33.72
2023-03-16T02:56:26.333Z,33.66
2023-03-16T03:00:26.604Z,33.54
2023-03-16T03:04:26.309Z,33.35
2023-03-16T03:08:26.266Z,33.34
2023-03-16T03:12:26.264Z,33.26
2023-03-16T03:16:26.338Z,33.26
2023-03-16T03:20:26.704Z,33.16
2023-03-16T03:24:26.277Z,33.04
2023-03-16T03:28:26.253Z,32.97
2023-03-16T03:32:26.326Z,32.91
2023-03-16T03:36:26.283Z,32.87
2023-03-16T03:40:26.627Z,32.78
2023-03-16T03:44:26.393Z,32.69
2023-03-16T03:48:26.326Z,32.66
2023-03-16T03:52:26.329Z,32.60
2023-03-16T03:56:26.350Z,32.49
2023-03-16T04:00:26.639Z,32.52
2023-03-16T04:04:26.367Z,32.42
2023-03-16T04:08:26.365Z,32.36
2023-03-16T04:12:26.397Z,32.31
2023-03-16T04:16:26.456Z,32.29
2023-03-16T04:20:26.787Z,32.23
2023-03-16T04:24:26.424Z,32.16
2023-03-16T04:28:26.506Z,32.13
2023-03-16T04:32:26.578Z,32.08
2023-03-16T04:36:26.444Z,32.02
2023-03-16T04:40:26.814Z,31.98
2023-03-16T04:44:26.508Z,31.93
2023-03-16T04:48:26.535Z,31.87
2023-03-16T04:52:26.516Z,31.84
2023-03-16T04:56:26.541Z,31.74
2023-03-16T05:00:26.897Z,31.68
2023-03-16T05:04:26.555Z,31.59
2023-03-16T05:08:26.577Z,31.62
2023-03-16T05:12:26.571Z,31.58
2023-03-16T05:16:26.655Z,31.54
2023-03-16T05:20:26.663Z,31.46
2023-03-16T05:24:26.574Z,31.42
2023-03-16T05:28:26.580Z,31.36
2023-03-16T05:32:26.611Z,31.29
2023-03-16T05:36:26.569Z,31.24
2023-03-16T05:40:26.894Z,31.19
2023-03-16T05:44:26.560Z,31.11
2023-03-16T05:48:26.545Z,31.10
2023-03-16T05:52:26.554Z,32.10
2023-03-16T05:56:26.540Z,32.85
2023-03-16T06:00:26.818Z,33.26
2023-03-16T06:04:26.574Z,33.42
2023-03-16T06:08:26.547Z,34.19
2023-03-16T06:12:26.573Z,35.22
2023-03-16T06:16:26.617Z,35.92
2023-03-16T06:20:26.827Z,36.77
2023-03-16T06:24:26.574Z,37.72
2023-03-16T06:28:26.526Z,38.46
2023-03-16T06:32:26.628Z,39.15
2023-03-16T06:36:26.613Z,39.81
2023-03-16T06:40:26.977Z,40.70
2023-03-16T06:44:27.269Z,41.17
2023-03-16T06:48:27.256Z,41.89
2023-03-16T06:52:26.898Z,42.65
2023-03-16T06:56:27.242Z,42.96
2023-03-16T07:00:27.526Z,43.77
2023-03-16T07:04:26.771Z,43.83
2023-03-16T07:08:26.705Z,43.07
2023-03-16T07:12:26.786Z,43.15
2023-03-16T07:16:26.873Z,42.91
2023-03-16T07:20:27.010Z,43.17
2023-03-16T07:24:26.562Z,43.89
2023-03-16T07:28:26.665Z,43.80
2023-03-16T07:32:26.855Z,45.26
2023-03-16T07:36:26.939Z,45.88
2023-03-16T07:40:27.590Z,46.05
2023-03-16T07:44:27.180Z,46.74
2023-03-16T07:48:27.790Z,46.73
2023-03-16T07:52:27.770Z,46.69
2023-03-16T07:56:31.602Z,46.92
2023-03-16T08:00:28.591Z,47.14
2023-03-16T08:04:27.380Z,47.43
2023-03-16T08:08:27.334Z,47.36
2023-03-16T08:12:27.412Z,47.48
2023-03-16T08:16:27.835Z,47.76
2023-03-16T08:20:27.769Z,47.76
2023-03-16T08:24:27.767Z,48.15
2023-03-16T08:28:27.557Z,47.70
2023-03-16T08:32:27.604Z,47.45
2023-03-16T08:36:27.605Z,47.68
2023-03-16T08:40:28.176Z,47.37
2023-03-16T08:44:27.775Z,47.68
2023-03-16T08:48:27.785Z,47.40
2023-03-16T08:52:27.817Z,47.64
2023-03-16T08:56:27.575Z,47.95
2023-03-16T09:00:27.957Z,48.23
2023-03-16T09:04:27.593Z,48.40
2023-03-16T09:08:27.793Z,48.29
2023-03-16T09:12:27.546Z,48.37
2023-03-16T09:16:27.836Z,48.90
2023-03-16T09:20:29.999Z,48.66
2023-03-16T09:24:27.465Z,48.75
2023-03-16T09:28:27.414Z,48.81
2023-03-16T09:32:27.444Z,48.64
2023-03-16T09:36:27.823Z,48.82
2023-03-16T09:40:27.792Z,49.46
2023-03-16T09:44:27.290Z,49.04
2023-03-16T09:48:27.271Z,49.13
2023-03-16T09:52:27.334Z,49.03
2023-03-16T09:56:27.320Z,49.20
2023-03-16T10:00:27.829Z,49.38
2023-03-16T10:04:27.121Z,49.36
2023-03-16T10:08:27.055Z,49.40
2023-03-16T10:12:27.241Z,49.51
2023-03-16T10:16:27.290Z,49.33
2023-03-16T10:20:27.505Z,49.50
2023-03-16T10:24:27.155Z,49.53
2023-03-16T10:28:27.084Z,49.38
2023-03-16T10:32:28.185Z,49.79
2023-03-16T10:36:27.061Z,49.88
2023-03-16T10:40:27.460Z,49.86
2023-03-16T10:44:27.380Z,50.10
2023-03-16T10:48:27.350Z,50.20
2023-03-16T10:52:27.359Z,50.13
2023-03-16T10:56:27.358Z,49.90
2023-03-16T11:00:27.348Z,49.74
2023-03-16T11:04:27.949Z,49.87
2023-03-16T11:08:27.760Z,50.11
2023-03-16T11:12:27.905Z,50.07
2023-03-16T11:16:28.291Z,50.09
2023-03-16T11:20:28.331Z,49.90
2023-03-16T11:24:28.530Z,50.06
2023-03-16T11:28:28.755Z,50.25
2023-03-16T11:32:28.974Z,49.94
2023-03-16T11:36:29.202Z,49.90
2023-03-16T11:40:29.328Z,50.01
2023-03-16T11:44:29.841Z,49.93
2023-03-16T11:48:29.669Z,49.84
2023-03-16T11:52:29.823Z,50.03
2023-03-16T11:56:30.011Z,50.07
2023-03-16T12:00:30.160Z,49.78
2023-03-16T12:04:30.376Z,49.92
2023-03-16T12:08:30.502Z,49.97
2023-03-16T12:12:30.635Z,49.61
2023-03-16T12:16:39.059Z,49.13
2023-03-16T12:20:31.794Z,48.65
2023-03-16T12:24:30.693Z,48.65
2023-03-16T12:28:31.387Z,48.51
2023-03-16T12:32:31.346Z,48.64
2023-03-16T12:36:31.356Z,48.71
2023-03-16T12:40:31.361Z,48.55
2023-03-16T12:44:31.273Z,48.59
2023-03-16T12:48:31.880Z,48.41
2023-03-16T12:52:31.580Z,48.62
2023-03-16T12:56:31.871Z,48.62
2023-03-16T13:00:31.903Z,48.39
2023-03-16T13:04:32.163Z,48.39
2023-03-16T13:08:32.225Z,48.64
2023-03-16T13:12:32.403Z,48.53
2023-03-16T13:16:32.699Z,48.40
2023-03-16T13:20:32.936Z,48.62
2023-03-16T13:24:33.397Z,48.89
2023-03-16T13:28:33.381Z,48.83
2023-03-16T13:32:33.330Z,48.89
2023-03-16T13:36:33.363Z,48.88
2023-03-16T13:40:33.872Z,48.81
2023-03-16T13:44:33.722Z,49.14
2023-03-16T13:48:33.902Z,49.25
2023-03-16T13:52:33.995Z,49.11
2023-03-16T13:56:34.158Z,49.12
2023-03-16T14:00:34.322Z,49.63
2023-03-16T14:04:34.506Z,49.39
2023-03-16T14:08:34.750Z,49.23
2023-03-16T14:12:34.840Z,49.49
2023-03-16T14:16:35.392Z,49.55
2023-03-16T14:20:41.223Z,49.46
2023-03-16T14:24:36.189Z,49.19
2023-03-16T14:28:35.264Z,48.79
2023-03-16T14:32:35.285Z,49.79
2023-03-16T14:36:35.227Z,49.76
2023-03-16T14:40:35.226Z,49.90
2023-03-16T14:44:35.155Z,50.23
2023-03-16T14:48:35.100Z,50.46
2023-03-16T14:52:35.071Z,50.26
2023-03-16T14:56:35.435Z,50.08
2023-03-16T15:00:50.222Z,50.27
2023-03-16T15:04:36.003Z,50.41
2023-03-16T15:08:35.440Z,50.48
2023-03-16T15:12:35.445Z,50.48
2023-03-16T15:16:35.471Z,50.80
2023-03-16T15:20:35.419Z,50.77
2023-03-16T15:24:35.640Z,50.87
2023-03-16T15:28:35.851Z,51.01
2023-03-16T15:32:36.106Z,51.60
2023-03-16T15:36:36.453Z,51.57
2023-03-16T15:40:35.958Z,51.92
2023-03-16T15:44:35.971Z,51.69
2023-03-16T15:48:35.915Z,52.02
2023-03-16T15:52:35.880Z,51.86
2023-03-16T15:56:47.253Z,52.26
2023-03-16T16:00:36.852Z,52.41
2023-03-16T16:04:35.864Z,52.78
2023-03-16T16:08:35.984Z,53.15
2023-03-16T16:12:35.933Z,53.20
2023-03-16T16:16:35.978Z,52.96
2023-03-16T16:20:35.961Z,53.48
2023-03-16T16:24:35.819Z,53.84
2023-03-16T16:28:35.809Z,53.62
2023-03-16T16:32:35.838Z,53.88
2023-03-16T16:36:35.738Z,53.99
2023-03-16T16:40:35.706Z,53.86
2023-03-16T16:44:37.997Z,53.40
2023-03-16T16:48:35.873Z,54.19
2023-03-16T16:52:35.845Z,54.50
2023-03-16T16:56:35.769Z,54.64
2023-03-16T17:00:35.771Z,54.17
2023-03-16T17:04:35.778Z,54.68
2023-03-16T17:08:35.709Z,54.99
2023-03-16T17:12:35.643Z,55.16
2023-03-16T17:16:35.715Z,55.12
2023-03-16T17:20:35.555Z,54.53
2023-03-16T17:24:35.560Z,55.11
2023-03-16T17:28:35.616Z,55.31
2023-03-16T17:32:35.642Z,54.98
2023-03-16T17:36:35.509Z,55.12
2023-03-16T17:40:35.482Z,55.56
2023-03-16T17:44:35.453Z,55.93
2023-03-16T17:48:35.418Z,55.30
2023-03-16T17:52:35.383Z,55.21
2023-03-16T17:56:35.351Z,55.12
2023-03-16T18:00:35.309Z,54.98
2023-03-16T18:04:35.263Z,55.34
2023-03-16T18:08:35.222Z,55.22
2023-03-16T18:12:35.189Z,54.82
2023-03-16T18:16:35.231Z,54.52
2023-03-16T18:20:35.167Z,54.28
2023-03-16T18:24:35.138Z,54.16
2023-03-16T18:28:35.100Z,53.93
2023-03-16T18:32:35.122Z,53.80
2023-03-16T18:36:35.028Z,53.51
2023-03-16T18:40:34.987Z,53.15
2023-03-16T18:44:34.952Z,52.85
2023-03-16T18:48:34.945Z,52.45
2023-03-16T18:52:34.923Z,52.21
2023-03-16T18:56:34.861Z,51.92
2023-03-16T19:00:34.852Z,51.48
2023-03-16T19:04:34.739Z,51.23
2023-03-16T19:08:34.744Z,50.95
2023-03-16T19:12:34.794Z,50.58
2023-03-16T19:16:34.888Z,50.30
2023-03-16T19:20:34.958Z,50.03
2023-03-16T19:24:35.082Z,49.54
2023-03-16T19:28:35.101Z,49.35
2023-03-16T19:32:35.190Z,49.12
2023-03-16T19:36:35.248Z,48.89
2023-03-16T19:40:35.313Z,48.59
2023-03-16T19:44:35.360Z,48.24
2023-03-16T19:48:35.402Z,48.05
2023-03-16T19:52:35.411Z,47.78
2023-03-16T19:56:35.465Z,47.58
2023-03-16T20:00:35.466Z,47.34
2023-03-16T20:04:35.539Z,47.00
2023-03-16T20:08:35.440Z,46.99
2023-03-16T20:12:35.418Z,46.73
2023-03-16T20:16:35.450Z,46.54
2023-03-16T20:20:35.376Z,46.35
2023-03-16T20:24:35.402Z,46.14
2023-03-16T20:28:35.361Z,46.02
2023-03-16T20:32:35.414Z,45.79
2023-03-16T20:36:35.312Z,45.61
2023-03-16T20:40:35.328Z,45.36
2023-03-16T20:44:35.267Z,45.26
2023-03-16T20:48:35.298Z,45.13
2023-03-16T20:52:35.272Z,44.90
2023-03-16T20:56:35.244Z,44.81
2023-03-16T21:00:35.246Z,44.65
2023-03-16T21:04:35.306Z,44.61
2023-03-16T21:08:35.186Z,44.37
2023-03-16T21:12:35.198Z,44.12
2023-03-16T21:16:35.212Z,44.05
2023-03-16T21:20:35.183Z,43.80
2023-03-16T21:24:35.178Z,43.80
2023-03-16T21:28:35.166Z,43.42
2023-03-16T21:32:35.154Z,43.35
2023-03-16T21:36:35.152Z,43.24
2023-03-16T21:40:35.179Z,43.13
2023-03-16T21:44:35.214Z,42.96
2023-03-16T21:48:35.175Z,42.80
2023-03-16T21:52:35.175Z,42.55
2023-03-16T21:56:35.210Z,42.63
2023-03-16T22:00:35.241Z,42.25
2023-03-16T22:04:35.260Z,42.20
2023-03-16T22:08:35.254Z,41.94
2023-03-16T22:12:35.312Z,41.82
2023-03-16T22:16:35.396Z,41.70
2023-03-16T22:20:35.406Z,41.55
2023-03-16T22:24:35.458Z,41.55
2023-03-16T22:28:35.462Z,41.49
2023-03-16T22:32:35.586Z,41.28
2023-03-16T22:36:35.554Z,41.12
2023-03-16T22:40:35.580Z,40.92
2023-03-16T22:44:35.633Z,40.85
2023-03-16T22:48:35.667Z,40.87
2023-03-16T22:52:35.735Z,40.78
2023-03-16T22:56:35.787Z,40.71
2023-03-16T23:00:35.831Z,40.62
2023-03-16T23:04:35.914Z,40.47
2023-03-16T23:08:35.933Z,40.39
2023-03-16T23:12:35.961Z,40.40
2023-03-16T23:16:36.053Z,40.33
2023-03-16T23:20:36.098Z,40.34
2023-03-16T23:24:36.145Z,40.14
2023-03-16T23:28:36.193Z,40.15
2023-03-16T23:32:36.276Z,40.13
2023-03-16T23:36:36.273Z,40.04
2023-03-16T23:40:36.372Z,39.87
2023-03-16T23:44:36.444Z,39.87
2023-03-16T23:48:36.490Z,39.86
2023-03-16T23:52:36.575Z,39.86
2023-03-16T23:56:36.673Z,39.85
